createdAt,value
2022-12-27T00:00:25.232Z,98197.86
2022-12-27T00:03:13.253Z,98193.34
2022-12-27T00:05:45.782Z,98185.60
2022-12-27T00:08:14.410Z,98173.18
2022-12-27T00:10:42.252Z,98180.73
2022-12-27T00:13:10.656Z,98179.45
2022-12-27T00:15:38.704Z,98183.26
2022-12-27T00:18:06.621Z,98179.45
2022-12-27T00:20:34.392Z,98178.73
2022-12-27T00:23:02.393Z,98174.70
2022-12-27T00:25:30.339Z,98167.54
2022-12-27T00:27:58.289Z,98160.74
2022-12-27T00:30:26.210Z,98157.58
2022-12-27T00:32:54.115Z,98147.73
2022-12-27T00:35:22.113Z,98153.07
2022-12-27T00:37:49.978Z,98152.80
2022-12-27T00:40:17.719Z,98147.05
2022-12-27T00:42:45.577Z,98150.90
2022-12-27T00:45:13.317Z,98150.94
2022-12-27T00:47:41.224Z,98149.75
2022-12-27T00:50:09.330Z,98153.69
2022-12-27T00:52:37.091Z,98150.35
2022-12-27T00:55:05.735Z,98147.22
2022-12-27T00:57:33.611Z,98150.48
2022-12-27T01:00:07.943Z,98158.63
2022-12-27T01:02:37.993Z,98155.52
2022-12-27T01:05:06.696Z,98155.11
2022-12-27T01:07:34.812Z,98156.80
2022-12-27T01:10:02.919Z,98165.76
2022-12-27T01:12:30.838Z,98171.21
2022-12-27T01:14:58.566Z,98171.56
2022-12-27T01:17:26.360Z,98183.10
2022-12-27T01:19:54.331Z,98189.05
2022-12-27T01:22:22.326Z,98198.09
2022-12-27T01:24:50.375Z,98212.00
2022-12-27T01:27:18.200Z,98219.11
2022-12-27T01:29:46.623Z,98242.77
2022-12-27T01:32:14.592Z,98246.47
2022-12-27T01:34:42.474Z,98245.23
2022-12-27T01:37:10.288Z,98245.33
2022-12-27T01:39:38.417Z,98242.30
2022-12-27T01:42:29.568Z,98237.23
2022-12-27T01:44:58.254Z,98243.08
2022-12-27T01:47:31.635Z,98250.80
2022-12-27T01:50:17.919Z,98255.70
2022-12-27T01:52:55.087Z,98258.00
2022-12-27T01:55:32.408Z,98257.51
2022-12-27T01:58:36.607Z,98252.19
2022-12-27T02:01:07.591Z,98259.61
2022-12-27T02:03:39.749Z,98260.15
2022-12-27T02:06:11.259Z,98271.21
2022-12-27T02:08:42.651Z,98273.33
2022-12-27T02:11:13.816Z,98275.02
2022-12-27T02:13:44.597Z,98278.25
2022-12-27T02:16:18.347Z,98273.02
2022-12-27T02:18:47.230Z,98272.43
2022-12-27T02:21:21.283Z,98274.83
2022-12-27T02:24:13.253Z,98284.42
2022-12-27T02:27:02.724Z,98286.15
2022-12-27T02:29:37.320Z,98288.08
2022-12-27T02:32:11.723Z,98287.56
2022-12-27T02:34:58.398Z,98292.79
2022-12-27T02:37:32.321Z,98294.31
2022-12-27T02:40:22.847Z,98291.61
2022-12-27T02:43:12.075Z,98287.64
2022-12-27T02:46:02.738Z,98294.12
2022-12-27T02:48:49.844Z,98296.06
2022-12-27T02:52:01.139Z,98299.14
2022-12-27T02:55:08.617Z,98304.34
2022-12-27T02:58:01.537Z,98314.94
2022-12-27T03:01:05.249Z,98322.29
2022-12-27T03:03:49.487Z,98322.36
2022-12-27T03:06:39.268Z,98326.96
2022-12-27T03:09:51.243Z,98335.98
2022-12-27T03:12:48.056Z,98344.41
2022-12-27T03:15:50.139Z,98348.57
2022-12-27T03:18:25.648Z,98356.23
2022-12-27T03:21:15.891Z,98361.80
2022-12-27T03:24:05.283Z,98362.15
2022-12-27T03:26:36.997Z,98362.00
2022-12-27T03:29:26.460Z,98366.77
2022-12-27T03:32:17.906Z,98376.30
2022-12-27T03:34:53.544Z,98377.72
2022-12-27T03:37:46.436Z,98378.61
2022-12-27T03:41:06.483Z,98391.39
2022-12-27T03:43:36.873Z,98395.72
2022-12-27T03:46:35.923Z,98406.75
2022-12-27T03:49:11.814Z,98405.16
2022-12-27T03:51:56.137Z,98409.77
2022-12-27T03:54:32.460Z,98417.05
2022-12-27T03:57:08.470Z,98421.10
2022-12-27T03:59:36.679Z,98425.80
2022-12-27T04:02:05.783Z,98432.14
2022-12-27T04:04:34.407Z,98436.37
2022-12-27T04:07:02.624Z,98444.84
2022-12-27T04:09:49.459Z,98452.04
2022-12-27T04:12:36.714Z,98456.41
2022-12-27T04:15:24.014Z,98460.31
2022-12-27T04:18:10.853Z,98464.16
2022-12-27T04:20:58.100Z,98468.21
2022-12-27T04:23:44.574Z,98456.58
2022-12-27T04:26:31.280Z,98460.52
2022-12-27T04:29:17.931Z,98474.74
2022-12-27T04:32:04.677Z,98483.56
2022-12-27T04:34:44.243Z,98489.75
2022-12-27T04:37:20.219Z,98494.88
2022-12-27T04:40:07.460Z,98490.04
2022-12-27T04:42:54.333Z,98493.01
2022-12-27T04:45:41.096Z,98500.14
2022-12-27T04:48:33.067Z,98497.69
2022-12-27T04:51:19.778Z,98505.95
2022-12-27T04:54:06.465Z,98504.99
2022-12-27T04:56:34.394Z,98514.31
2022-12-27T04:59:21.094Z,98513.73
2022-12-27T05:02:04.788Z,98519.04
2022-12-27T05:04:36.989Z,98527.45
2022-12-27T05:07:27.191Z,98542.84
2022-12-27T05:10:14.492Z,98553.75
2022-12-27T05:13:01.182Z,98569.14
2022-12-27T05:15:29.230Z,98572.83
2022-12-27T05:17:58.087Z,98578.55
2022-12-27T05:20:26.024Z,98580.52
2022-12-27T05:23:12.813Z,98582.30
2022-12-27T05:25:41.940Z,98587.58
2022-12-27T05:28:11.931Z,98596.14
2022-12-27T05:30:42.333Z,98599.91
2022-12-27T05:33:11.150Z,98602.14
2022-12-27T05:35:39.452Z,98617.42
2022-12-27T05:38:07.919Z,98620.48
2022-12-27T05:40:36.329Z,98618.06
2022-12-27T05:43:04.500Z,98621.54
2022-12-27T05:45:32.992Z,98634.27
2022-12-27T05:48:00.920Z,98640.09
2022-12-27T05:50:28.953Z,98649.09
2022-12-27T05:53:11.719Z,98658.75
2022-12-27T05:55:40.301Z,98657.75
2022-12-27T05:58:08.194Z,98656.89
2022-12-27T06:00:36.203Z,98669.54
2022-12-27T06:03:04.373Z,98672.14
2022-12-27T06:05:32.440Z,98671.09
2022-12-27T06:08:00.428Z,98674.95
2022-12-27T06:10:28.410Z,98680.27
2022-12-27T06:12:56.403Z,98678.33
2022-12-27T06:15:24.647Z,98679.00
2022-12-27T06:17:52.750Z,98690.89
2022-12-27T06:20:21.884Z,98703.75
2022-12-27T06:22:49.785Z,98720.89
2022-12-27T06:25:17.782Z,98727.09
2022-12-27T06:27:46.096Z,98736.01
2022-12-27T06:30:15.475Z,98743.08
2022-12-27T06:32:43.375Z,98752.30
2022-12-27T06:35:11.367Z,98761.18
2022-12-27T06:37:39.513Z,98772.77
2022-12-27T06:40:07.830Z,98780.59
2022-12-27T06:42:35.823Z,98781.83
2022-12-27T06:45:04.024Z,98780.80
2022-12-27T06:47:32.281Z,98789.04
2022-12-27T06:50:00.223Z,98790.65
2022-12-27T06:52:28.301Z,98795.84
2022-12-27T06:54:56.291Z,98799.98
2022-12-27T06:57:24.446Z,98806.48
2022-12-27T06:59:54.141Z,98809.55
2022-12-27T07:02:22.628Z,98817.66
2022-12-27T07:04:50.667Z,98829.79
2022-12-27T07:07:18.540Z,98832.41
2022-12-27T07:09:46.613Z,98837.92
2022-12-27T07:12:14.569Z,98846.36
2022-12-27T07:14:42.538Z,98858.45
2022-12-27T07:17:10.483Z,98859.33
2022-12-27T07:19:38.598Z,98857.60
2022-12-27T07:22:06.663Z,98854.84
2022-12-27T07:24:34.593Z,98859.81
2022-12-27T07:27:03.116Z,98858.88
2022-12-27T07:29:31.497Z,98866.50
2022-12-27T07:31:59.503Z,98871.04
2022-12-27T07:34:27.513Z,98876.06
2022-12-27T07:36:55.593Z,98877.26
2022-12-27T07:39:23.536Z,98882.09
2022-12-27T07:41:51.906Z,98887.74
2022-12-27T07:44:19.951Z,98894.61
2022-12-27T07:46:47.959Z,98900.83
2022-12-27T07:49:18.086Z,98908.98
2022-12-27T07:51:46.341Z,98917.29
2022-12-27T07:54:14.302Z,98928.30
2022-12-27T07:56:42.962Z,98933.79
2022-12-27T07:59:13.204Z,98940.00
2022-12-27T08:02:00.163Z,98942.76
2022-12-27T08:04:29.106Z,98951.31
2022-12-27T08:07:03.264Z,98955.36
2022-12-27T08:09:35.330Z,98958.90
2022-12-27T08:12:03.801Z,98962.88
2022-12-27T08:14:31.826Z,98966.86
2022-12-27T08:17:05.792Z,98969.05
2022-12-27T08:19:34.333Z,98972.60
2022-12-27T08:22:02.311Z,98982.42
2022-12-27T08:24:30.315Z,98985.94
2022-12-27T08:26:58.418Z,98985.30
2022-12-27T08:29:26.348Z,98989.98
2022-12-27T08:31:54.398Z,98999.41
2022-12-27T08:34:22.373Z,98999.95
2022-12-27T08:36:56.262Z,98997.02
2022-12-27T08:39:24.723Z,99006.23
2022-12-27T08:41:54.346Z,99010.54
2022-12-27T08:44:22.766Z,99014.08
2022-12-27T08:46:50.751Z,99020.81
2022-12-27T08:50:25.644Z,99027.27
2022-12-27T08:52:56.668Z,99029.69
2022-12-27T08:55:26.420Z,99037.29
2022-12-27T08:58:03.060Z,99042.88
2022-12-27T09:00:32.362Z,99041.37
2022-12-27T09:03:00.466Z,99039.31
2022-12-27T09:05:30.147Z,99042.83
2022-12-27T09:07:59.018Z,99045.14
2022-12-27T09:10:27.599Z,99053.58
2022-12-27T09:12:55.577Z,99052.90
2022-12-27T09:15:23.581Z,99054.65
2022-12-27T09:17:51.501Z,99055.54
2022-12-27T09:20:19.523Z,99053.67
2022-12-27T09:22:47.624Z,99054.77
2022-12-27T09:25:15.810Z,99052.60
2022-12-27T09:27:44.026Z,99048.91
2022-12-27T09:30:12.369Z,99048.38
2022-12-27T09:32:40.408Z,99038.38
2022-12-27T09:35:08.770Z,99042.06
2022-12-27T09:37:36.726Z,99043.44
2022-12-27T09:40:05.185Z,99038.23
2022-12-27T09:43:07.516Z,99041.55
2022-12-27T09:45:45.660Z,99038.02
2022-12-27T09:48:21.843Z,99036.89
2022-12-27T09:50:58.341Z,99034.13
2022-12-27T09:53:51.286Z,99039.83
2022-12-27T09:56:54.102Z,99039.14
2022-12-27T09:59:44.387Z,99037.90
2022-12-27T10:02:20.309Z,99038.96
2022-12-27T10:08:23.770Z,99039.39
2022-12-27T10:11:04.798Z,99040.84
2022-12-27T10:13:57.031Z,99039.55
2022-12-27T10:16:46.427Z,99041.83
2022-12-27T10:19:33.033Z,99042.48
2022-12-27T10:22:33.744Z,99042.61
2022-12-27T10:25:04.939Z,99039.67
2022-12-27T10:27:34.160Z,99037.77
2022-12-27T10:30:15.311Z,99039.96
2022-12-27T10:32:47.078Z,99040.40
2022-12-27T10:35:22.875Z,99042.35
2022-12-27T10:37:54.068Z,99045.98
2022-12-27T10:40:48.562Z,99051.86
2022-12-27T10:43:33.535Z,99054.59
2022-12-27T10:46:11.727Z,99056.17
2022-12-27T10:49:18.947Z,99060.58
2022-12-27T10:51:39.679Z,99066.95
2022-12-27T10:54:15.059Z,99066.23
2022-12-27T10:56:44.406Z,99060.46
2022-12-27T10:59:16.634Z,99059.72
2022-12-27T11:01:46.887Z,99059.77
2022-12-27T11:04:21.023Z,99056.16
2022-12-27T11:07:02.269Z,99057.45
2022-12-27T11:09:35.039Z,99051.01
2022-12-27T11:12:26.154Z,99050.23
2022-12-27T11:15:11.821Z,99047.35
2022-12-27T11:17:47.359Z,99044.09
2022-12-27T11:20:23.929Z,99045.61
2022-12-27T11:23:13.584Z,99048.30
2022-12-27T11:26:01.764Z,99043.20
2022-12-27T11:28:36.973Z,99049.75
2022-12-27T11:31:18.142Z,99047.83
2022-12-27T11:33:50.142Z,99052.48
2022-12-27T11:36:29.486Z,99046.71
2022-12-27T11:38:57.625Z,99053.06
2022-12-27T11:41:45.007Z,99056.27
2022-12-27T11:44:33.226Z,99047.44
2022-12-27T11:47:42.001Z,99048.55
2022-12-27T11:50:28.519Z,99048.09
2022-12-27T11:53:24.073Z,99040.48
2022-12-27T11:56:16.332Z,99048.23
2022-12-27T11:59:03.368Z,99054.42
2022-12-27T12:02:04.956Z,99063.56
2022-12-27T12:05:21.488Z,99057.45
2022-12-27T12:08:22.810Z,99060.29
2022-12-27T12:11:24.017Z,99061.67
2022-12-27T12:14:20.724Z,99055.80
2022-12-27T12:17:14.326Z,99046.01
2022-12-27T12:20:04.206Z,99043.36
2022-12-27T12:22:58.230Z,99041.94
2022-12-27T12:25:58.813Z,99044.13
2022-12-27T12:29:01.388Z,99047.30
2022-12-27T12:31:55.712Z,99056.66
2022-12-27T12:34:48.221Z,99050.08
2022-12-27T12:37:37.935Z,99050.04
2022-12-27T12:40:06.956Z,99044.47
2022-12-27T12:43:06.420Z,99047.79
2022-12-27T12:46:10.752Z,99056.59
2022-12-27T12:49:10.349Z,99056.10
2022-12-27T12:51:56.096Z,99051.52
2022-12-27T12:54:52.328Z,99048.55
2022-12-27T12:57:44.160Z,99053.66
2022-12-27T13:00:44.594Z,99057.07
2022-12-27T13:03:33.526Z,99063.89
2022-12-27T13:06:21.799Z,99066.16
2022-12-27T13:09:13.984Z,99068.47
2022-12-27T13:12:05.040Z,99076.42
2022-12-27T13:15:07.110Z,99072.25
2022-12-27T13:18:11.787Z,99074.52
2022-12-27T13:20:48.943Z,99072.43
2022-12-27T13:23:56.142Z,99065.64
2022-12-27T13:26:27.105Z,99075.19
2022-12-27T13:29:13.992Z,99070.99
2022-12-27T13:31:45.496Z,99072.11
2022-12-27T13:34:59.082Z,99080.16
2022-12-27T13:37:33.173Z,99081.08
2022-12-27T13:40:29.891Z,99087.61
2022-12-27T13:43:25.993Z,99085.95
2022-12-27T13:46:54.610Z,99087.84
2022-12-27T13:49:22.542Z,99081.58
2022-12-27T13:51:54.848Z,99085.86
2022-12-27T13:54:29.735Z,99088.71
2022-12-27T13:57:30.772Z,99089.66
2022-12-27T14:00:21.089Z,99094.38
2022-12-27T14:03:27.626Z,99097.46
2022-12-27T14:06:21.099Z,99101.45
2022-12-27T14:08:55.153Z,99102.33
2022-12-27T14:11:31.285Z,99100.39
2022-12-27T14:14:02.775Z,99100.39
2022-12-27T14:17:04.714Z,99102.92
2022-12-27T14:19:47.176Z,99100.70
2022-12-27T14:22:29.723Z,99109.05
2022-12-27T14:25:00.665Z,99112.39
2022-12-27T14:28:11.101Z,99115.64
2022-12-27T14:31:22.578Z,99117.71
2022-12-27T14:34:17.566Z,99115.79
2022-12-27T14:37:06.935Z,99113.12
2022-12-27T14:39:52.121Z,99120.98
2022-12-27T14:42:43.731Z,99123.36
2022-12-27T14:45:42.059Z,99119.63
2022-12-27T14:48:30.783Z,99124.64
2022-12-27T14:51:59.253Z,99136.30
2022-12-27T14:54:30.305Z,99137.70
2022-12-27T14:57:11.658Z,99133.23
2022-12-27T15:00:01.301Z,99127.19
2022-12-27T15:02:50.615Z,99125.52
2022-12-27T15:05:39.289Z,99121.14
2022-12-27T15:08:17.493Z,99133.24
2022-12-27T15:11:32.001Z,99144.34
2022-12-27T15:14:19.921Z,99152.00
2022-12-27T15:17:07.209Z,99161.46
2022-12-27T15:19:55.183Z,99175.77
2022-12-27T15:22:24.082Z,99177.23
2022-12-27T15:24:59.632Z,99173.96
2022-12-27T15:27:47.158Z,99166.52
2022-12-27T15:30:25.317Z,99166.39
2022-12-27T15:32:57.175Z,99170.92
2022-12-27T15:35:46.233Z,99165.21
2022-12-27T15:38:35.544Z,99158.97
2022-12-27T15:41:06.602Z,99160.54
2022-12-27T15:44:15.188Z,99163.35
2022-12-27T15:47:05.205Z,99169.64
2022-12-27T15:49:54.881Z,99170.88
2022-12-27T15:52:58.670Z,99171.09
2022-12-27T15:55:39.909Z,99170.75
2022-12-27T15:58:26.719Z,99163.48
2022-12-27T16:01:22.044Z,99160.85
2022-12-27T16:03:54.060Z,99162.39
2022-12-27T16:06:34.447Z,99173.45
2022-12-27T16:09:25.450Z,99170.48
2022-12-27T16:12:10.618Z,99175.46
2022-12-27T16:14:40.900Z,99178.39
2022-12-27T16:17:24.840Z,99178.17
2022-12-27T16:20:11.453Z,99182.14
2022-12-27T16:22:58.245Z,99184.40
2022-12-27T16:25:41.419Z,99186.44
2022-12-27T16:28:24.690Z,99183.45
2022-12-27T16:30:55.705Z,99185.03
2022-12-27T16:33:26.682Z,99186.32
2022-12-27T16:36:20.298Z,99185.47
2022-12-27T16:39:17.760Z,99186.85
2022-12-27T16:41:54.024Z,99191.19
2022-12-27T16:44:48.487Z,99195.35
2022-12-27T16:47:33.429Z,99198.62
2022-12-27T16:50:34.778Z,99197.59
2022-12-27T16:53:34.603Z,99198.31
2022-12-27T16:56:21.232Z,99194.98
2022-12-27T16:58:53.375Z,99193.27
2022-12-27T17:01:26.371Z,99194.69
2022-12-27T17:04:04.443Z,99199.56
2022-12-27T17:06:40.173Z,99195.62
2022-12-27T17:09:09.281Z,99193.29
2022-12-27T17:11:48.256Z,99192.50
2022-12-27T17:14:25.409Z,99196.41
2022-12-27T17:16:58.869Z,99198.70
2022-12-27T17:19:44.359Z,99200.62
2022-12-27T17:22:16.553Z,99207.05
2022-12-27T17:24:47.054Z,99207.91
2022-12-27T17:27:41.267Z,99217.11
2022-12-27T17:30:19.318Z,99212.06
2022-12-27T17:32:47.103Z,99211.46
2022-12-27T17:35:29.456Z,99215.56
2022-12-27T17:38:16.371Z,99218.73
2022-12-27T17:40:56.932Z,99220.44
2022-12-27T17:44:12.320Z,99223.13
2022-12-27T17:46:55.364Z,99220.71
2022-12-27T17:49:29.436Z,99223.48
2022-12-27T17:52:18.611Z,99223.96
2022-12-27T17:55:06.918Z,99232.41
2022-12-27T17:57:54.437Z,99233.27
2022-12-27T18:00:29.751Z,99233.97
2022-12-27T18:03:00.771Z,99236.56
2022-12-27T18:05:32.821Z,99240.27
2022-12-27T18:08:07.295Z,99242.60
2022-12-27T18:10:36.939Z,99240.20
2022-12-27T18:13:18.825Z,99241.13
2022-12-27T18:15:50.647Z,99237.73
2022-12-27T18:18:30.622Z,99231.49
2022-12-27T18:21:01.271Z,99235.54
2022-12-27T18:23:29.686Z,99228.67
2022-12-27T18:26:12.768Z,99242.33
2022-12-27T18:28:42.481Z,99249.76
2022-12-27T18:31:35.514Z,99251.45
2022-12-27T18:34:46.175Z,99253.35
2022-12-27T18:37:19.225Z,99261.98
2022-12-27T18:40:00.640Z,99264.48
2022-12-27T18:42:35.602Z,99266.63
2022-12-27T18:45:22.848Z,99270.48
2022-12-27T18:48:00.877Z,99272.05
2022-12-27T18:50:32.245Z,99277.09
2022-12-27T18:53:08.051Z,99275.36
2022-12-27T18:55:56.988Z,99274.30
2022-12-27T18:58:26.076Z,99273.06
2022-12-27T19:01:26.736Z,99275.11
2022-12-27T19:04:14.733Z,99270.83
2022-12-27T19:06:46.000Z,99242.27
2022-12-27T19:09:19.243Z,99260.73
2022-12-27T19:11:53.439Z,99251.09
2022-12-27T19:14:30.501Z,99251.63
2022-12-27T19:17:04.123Z,99256.87
2022-12-27T19:19:36.613Z,99257.05
2022-12-27T19:22:30.406Z,99252.63
2022-12-27T19:25:07.751Z,99262.88
2022-12-27T19:27:38.001Z,99258.94
2022-12-27T19:30:31.806Z,99264.69
2022-12-27T19:33:01.067Z,99270.61
2022-12-27T19:35:31.226Z,99274.58
2022-12-27T19:38:02.283Z,99275.96
2022-12-27T19:40:40.123Z,99282.38
2022-12-27T19:43:10.466Z,99278.21
2022-12-27T19:45:46.342Z,99279.81
2022-12-27T19:48:15.506Z,99276.56
2022-12-27T19:50:50.811Z,99272.25
2022-12-27T19:53:32.477Z,99271.39
2022-12-27T19:56:03.769Z,99268.64
2022-12-27T19:58:32.812Z,99268.48
2022-12-27T20:01:02.335Z,99278.89
2022-12-27T20:03:36.437Z,99278.56
2022-12-27T20:06:13.921Z,99282.59
2022-12-27T20:08:49.627Z,99291.27
2022-12-27T20:11:20.634Z,99273.89
2022-12-27T20:13:49.088Z,99293.58
2022-12-27T20:16:21.129Z,99298.61
2022-12-27T20:18:49.406Z,99299.98
2022-12-27T20:21:18.141Z,99302.25
2022-12-27T20:23:49.172Z,99303.99
2022-12-27T20:26:18.656Z,99305.55
2022-12-27T20:29:21.043Z,99305.69
2022-12-27T20:31:52.390Z,99304.48
2022-12-27T20:34:20.746Z,99305.70
2022-12-27T20:36:48.943Z,99299.86
2022-12-27T20:39:18.202Z,99308.16
2022-12-27T20:41:46.352Z,99309.54
2022-12-27T20:44:25.286Z,99310.39
2022-12-27T20:46:58.111Z,99310.05
2022-12-27T20:49:34.271Z,99301.09
2022-12-27T20:52:07.192Z,99313.36
2022-12-27T20:54:35.271Z,99315.80
2022-12-27T20:57:03.342Z,99317.55
2022-12-27T20:59:36.357Z,99314.94
2022-12-27T21:02:04.722Z,99315.44
2022-12-27T21:04:38.316Z,99317.51
2022-12-27T21:07:12.289Z,99324.78
2022-12-27T21:09:40.293Z,99323.75
2022-12-27T21:12:14.516Z,99326.34
2022-12-27T21:14:47.605Z,99328.42
2022-12-27T21:17:20.203Z,99330.66
2022-12-27T21:19:48.128Z,99328.58
2022-12-27T21:22:18.483Z,99327.55
2022-12-27T21:24:47.447Z,99325.48
2022-12-27T21:27:24.270Z,99326.20
2022-12-27T21:29:52.106Z,99325.85
2022-12-27T21:32:21.197Z,99327.96
2022-12-27T21:34:50.386Z,99326.59
2022-12-27T21:37:18.528Z,99323.83
2022-12-27T21:39:46.546Z,99319.34
2022-12-27T21:42:23.251Z,99317.09
2022-12-27T21:44:56.208Z,99314.15
2022-12-27T21:47:29.319Z,99317.09
2022-12-27T21:49:57.382Z,99312.24
2022-12-27T21:52:26.472Z,99311.36
2022-12-27T21:55:03.284Z,99308.40
2022-12-27T21:57:31.388Z,99307.48
2022-12-27T21:59:59.495Z,99312.99
2022-12-27T22:02:32.402Z,99304.82
2022-12-27T22:05:00.720Z,99306.20
2022-12-27T22:08:02.215Z,99309.98
2022-12-27T22:10:30.161Z,99310.66
2022-12-27T22:12:59.169Z,99316.52
2022-12-27T22:15:28.259Z,99311.17
2022-12-27T22:17:57.495Z,99306.13
2022-12-27T22:20:25.527Z,99310.08
2022-12-27T22:22:55.597Z,99309.58
2022-12-27T22:25:28.095Z,99314.48
2022-12-27T22:27:56.124Z,99311.22
2022-12-27T22:30:24.392Z,99313.64
2022-12-27T22:32:54.542Z,99314.81
2022-12-27T22:35:23.632Z,99312.21
2022-12-27T22:37:59.145Z,99308.72
2022-12-27T22:40:43.235Z,99307.16
2022-12-27T22:43:14.804Z,99304.23
2022-12-27T22:45:53.924Z,99308.35
2022-12-27T22:48:22.245Z,99304.31
2022-12-27T22:50:51.626Z,99302.58
2022-12-27T22:53:24.077Z,99296.83
2022-12-27T22:55:54.098Z,99292.64
2022-12-27T22:58:24.142Z,99291.41
2022-12-27T23:00:54.255Z,99292.98
2022-12-27T23:03:22.266Z,99297.16
2022-12-27T23:05:59.069Z,99298.40
2022-12-27T23:08:28.264Z,99306.27
2022-12-27T23:11:06.553Z,99312.40
2022-12-27T23:13:35.474Z,99310.01
2022-12-27T23:16:05.747Z,99303.30
2022-12-27T23:18:36.762Z,99304.20
2022-12-27T23:21:21.408Z,99306.30
2022-12-27T23:23:53.193Z,99303.73
2022-12-27T23:26:23.367Z,99302.52
2022-12-27T23:28:54.863Z,99300.98
2022-12-27T23:31:24.604Z,99298.23
2022-12-27T23:33:55.137Z,99299.11
2022-12-27T23:36:31.975Z,99293.75
2022-12-27T23:39:00.031Z,99289.25
2022-12-27T23:41:30.134Z,99280.80
2022-12-27T23:44:00.934Z,99279.78
2022-12-27T23:46:33.220Z,99279.98
2022-12-27T23:49:03.767Z,99279.11
2022-12-27T23:51:41.341Z,99279.83
2022-12-27T23:54:14.286Z,99274.65
2022-12-27T23:56:46.097Z,99269.10
2022-12-27T23:59:14.039Z,99268.08
